Latest Weather Observations for Newman Airport

IDW60801

Issued at 9:43 pm WST Saturday 23 January 2021 (issued every 10 minutes, with the page automatically refreshed every 10 minutes)

About weather observations | Map of weather stations | Latest weather observations for WA | Other Formats
Station Details ID: 007176 Name: NEWMAN AERO Lat: -23.42 Lon: 119.80 Height: 524.0 m
Data from the previous 72 hours. | See also: Recent months at Newman Airport
Date/Time
WST
Temp
°C
App
Temp
°C
Dew
Point
°C
Rel
Hum
%
Delta-T
°C
Wind Press
QNH
hPa
Press
MSL
hPa
Rain since
9am
mm
Dir  Spd
km/h
Gust
km/h
Spd
kts
Gust
kts
23/09:30pm 33.3 27.9 -1.1 11 17.0 WSW 17 26 9 14 1005.3 1000.7 0.0
23/09:00pm 33.7 28.2 -2.1 10 17.4 WSW 17 22 9 12 1005.0 1000.4 0.0
23/08:30pm 34.5 28.9 -2.9 9 18.0 WSW 17 26 9 14 1004.8 1000.2 0.0
23/08:00pm 35.0 29.4 -2.6 9 18.3 WSW 17 26 9 14 1004.5 999.9 0.0
23/07:30pm 35.8 29.7 -2.0 9 18.6 WSW 20 30 11 16 1004.2 999.5 0.0
23/07:00pm 36.7 30.4 -1.3 9 19.1 WSW 22 33 12 18 1003.7 999.0 0.0
23/06:30pm 37.4 31.9 0.7 10 19.0 SW 19 32 10 17 1003.2 998.6 0.0
23/06:00pm 38.1 31.7 1.2 10 19.4 WSW 24 35 13 19 1002.8 998.2 0.0
23/05:30pm 38.6 33.0 5.3 13 18.6 SW 24 39 13 21 1002.3 997.6 0.0
23/05:00pm 38.6 32.8 6.3 14 18.4 SW 26 43 14 23 1002.1 997.4 0.0
23/04:30pm 38.5 33.3 7.3 15 18.0 SW 24 43 13 23 1001.8 997.1 0.0
23/04:00pm 38.7 32.9 6.4 14 18.5 WSW 26 41 14 22 1001.8 997.1 0.0
23/03:30pm 38.3 33.4 7.1 15 17.9 SW 22 41 12 22 1001.9 997.2 0.0
23/03:00pm 37.8 34.5 9.4 18 16.9 SW 17 33 9 18 1002.2 997.5 0.0
23/02:30pm 38.3 33.4 9.8 18 17.0 SW 26 35 14 19 1002.5 997.8 0.0
23/02:00pm 38.0 35.3 10.4 19 16.7 SW 15 32 8 17 1002.6 998.0 0.0
23/01:30pm 36.6 34.2 11.4 22 15.3 SSW 15 30 8 16 1003.0 998.4 0.0
23/01:00pm 35.5 34.8 15.3 30 12.9 SW 13 26 7 14 1003.3 998.7 0.0
23/12:30pm 34.7 33.3 15.6 32 12.2 SW 17 28 9 15 1003.9 999.2 0.0
23/12:00pm 33.2 33.3 16.5 36 10.8 WSW 11 26 6 14 1004.3 999.6 0.0
23/11:30am 31.5 30.7 17.0 41 9.4 WSW 17 26 9 14 1004.8 1000.2 0.0
23/11:00am 30.5 30.7 17.6 46 8.4 S 13 20 7 11 1005.3 1000.7 0.0
23/10:30am 29.2 29.4 17.7 50 7.5 ESE 13 24 7 13 1005.5 1000.9 0.0
23/10:00am 28.0 28.8 18.1 55 6.4 ESE 11 17 6 9 1005.9 1001.2 0.0
23/09:30am 27.1 27.4 17.8 56 6.0 SE 13 20 7 11 1006.0 1001.3 0.0
23/09:00am 26.5 26.9 18.1 60 5.4 SE 13 26 7 14 1006.1 1001.4 0.0
23/08:30am 25.8 26.2 18.2 63 4.9 SE 13 22 7 12 1006.2 1001.6 0.0
23/08:00am 25.4 26.2 18.1 64 4.7 SE 11 17 6 9 1006.2 1001.6 0.0
23/07:30am 24.7 24.9 17.7 65 4.5 SE 13 19 7 10 1006.0 1001.3 0.0
23/07:00am 24.5 24.3 17.7 66 4.4 SSE 15 22 8 12 1006.0 1001.3 0.0
23/06:30am 24.1 23.9 17.6 67 4.1 SE 15 20 8 11 1005.8 1001.1 0.0
23/06:00am 23.9 22.8 17.4 67 4.1 SE 19 24 10 13 1005.8 1001.1 0.0
23/05:30am 23.8 24.1 17.8 69 3.8 SE 13 15 7 8 1005.5 1000.9 0.0
23/05:00am 23.7 23.6 17.9 70 3.7 SE 15 19 8 10 1005.5 1000.9 0.0
23/04:30am 23.6 24.3 18.0 71 3.6 SSE 11 15 6 8 1005.3 1000.7 0.0
23/04:00am 23.4 24.6 18.3 73 3.3 SSW 9 13 5 7 1005.1 1000.5 0.0
23/03:30am 23.1 24.3 18.2 74 3.1 SSW 9 11 5 6 1004.9 1000.3 0.0
23/03:00am 22.9 24.1 18.2 75 3.0 S 9 13 5 7 1004.8 1000.2 0.0
23/02:30am 22.8 24.0 18.3 76 2.9 SSE 9 13 5 7 1004.7 1000.1 0.0
23/02:00am 22.7 23.2 18.3 76 2.8 SE 13 19 7 10 1004.7 1000.1 0.0
23/01:30am 22.8 23.3 18.3 76 2.9 SE 13 17 7 9 1004.7 1000.1 0.0
23/01:00am 22.9 23.0 18.4 76 2.9 SE 15 20 8 11 1004.6 1000.0 0.0
23/12:30am 23.3 23.3 18.2 73 3.3 ESE 15 20 8 11 1005.0 1000.4 0.0
23/12:00am 23.6 23.3 18.3 72 3.4 ESE 17 22 9 12 1005.8 1001.1 0.0
 
Date/Time
WST
Temp
°C
App
Temp
°C
Dew
Point
°C
Rel
Hum
%
Delta-T
°C
Wind Press
QNH
hPa
Press
MSL
hPa
Rain since
9am
mm
Dir  Spd
km/h
Gust
km/h
Spd
kts
Gust
kts
22/11:30pm 24.0 23.5 17.7 68 4.0 E 17 24 9 13 1006.2 1001.6 0.0
22/11:00pm 24.4 23.8 17.6 66 4.3 E 17 24 9 13 1007.0 1002.4 0.0
22/10:30pm 24.5 24.0 17.7 66 4.3 ENE 17 24 9 13 1007.3 1002.7 0.0
22/10:00pm 24.9 24.5 18.1 66 4.4 E 17 24 9 13 1007.6 1003.0 0.0
22/09:30pm 25.3 24.6 18.2 64 4.6 E 19 30 10 16 1007.3 1002.7 0.0
22/09:00pm 25.8 24.4 16.9 58 5.7 E 20 28 11 15 1006.9 1002.3 0.0
22/08:30pm 26.1 24.6 16.4 55 6.1 E 19 26 10 14 1006.8 1002.2 0.0
22/08:00pm 26.6 24.4 15.9 51 6.7 E 22 30 12 16 1006.7 1002.1 0.0
22/07:30pm 27.1 25.3 15.5 49 7.2 ESE 19 26 10 14 1006.7 1002.1 0.0
22/07:00pm 27.4 25.2 14.8 46 7.8 ESE 20 30 11 16 1006.8 1002.2 0.0
22/06:30pm 27.8 24.0 14.8 45 8.0 ESE 28 39 15 21 1006.7 1002.1 0.0
22/06:00pm 28.4 24.5 14.3 42 8.7 ESE 28 41 15 22 1006.5 1001.9 0.0
22/05:32pm 29.4 25.0 14.0 39 9.5 E 30 48 16 26 1005.9 1001.2 0.0
22/05:30pm 29.2 24.3 13.8 39 9.4 E 32 48 17 26 1005.9 1001.2 0.0
22/05:00pm 30.2 25.4 14.7 39 9.7 E 33 46 18 25 1005.4 1000.8 0.0
22/04:30pm 31.1 27.5 16.3 41 9.5 E 30 41 16 22 1005.1 1000.5 0.0
22/04:00pm 32.5 27.9 14.6 34 11.2 E 32 43 17 23 1005.0 1000.4 0.0
22/03:30pm 32.4 28.7 15.0 35 11.0 E 28 39 15 21 1005.1 1000.5 0.0
22/03:10pm 33.4 29.0 14.0 31 12.1 E 30 48 16 26 1005.3 1000.7 0.0
22/03:00pm 33.5 29.2 14.5 31 12.0 E 30 43 16 23 1005.4 1000.8 0.0
22/02:30pm 33.8 31.2 13.8 30 12.4 E 20 35 11 19 1005.9 1001.2 0.0
22/02:00pm 34.4 30.7 13.8 29 12.9 ENE 26 35 14 19 1006.0 1001.3 0.0
22/01:30pm 33.4 30.1 14.0 31 12.1 ENE 24 35 13 19 1006.6 1002.0 0.0
22/01:00pm 33.4 30.1 14.0 31 12.1 ENE 24 33 13 18 1007.2 1002.6 0.0
22/12:30pm 33.6 30.7 14.1 30 12.2 ENE 22 30 12 16 1007.5 1002.9 0.0
22/12:00pm 33.3 30.2 13.4 30 12.3 ENE 22 39 12 21 1007.9 1003.3 0.0
22/11:30am 33.0 29.6 13.6 31 12.0 ENE 24 35 13 19 1008.2 1003.6 0.0
22/11:00am 33.2 29.9 12.8 29 12.5 NE 22 37 12 20 1008.4 1003.8 0.0
22/10:30am 33.2 31.2 13.8 31 12.0 NNE 17 28 9 15 1008.8 1004.2 0.0
22/10:00am 33.7 32.6 14.2 30 12.2 NE 13 26 7 14 1009.1 1004.5 0.0
22/09:30am 32.8 31.9 14.9 34 11.3 NE 13 26 7 14 1009.2 1004.6 0.0
22/09:00am 30.8 30.0 16.0 40 9.4 NE 15 26 8 14 1009.5 1004.9 0.0
22/08:30am 30.1 29.4 16.5 44 8.7 NNE 15 24 8 13 1010.0 1005.4 0.0
22/08:00am 29.9 31.5 18.3 49 7.6 NNE 7 15 4 8 1009.5 1004.9 0.0
22/07:30am 29.0 30.7 19.3 55 6.4 NNW 9 13 5 7 1009.5 1004.9 0.0
22/07:00am 28.5 29.2 19.7 59 5.9 N 15 20 8 11 1009.3 1004.7 0.0
22/06:30am 28.3 28.2 19.5 59 5.8 N 19 22 10 12 1009.3 1004.7 0.0
22/06:00am 28.1 27.7 19.3 58 5.8 N 20 28 11 15 1009.0 1004.4 0.0
22/05:30am 28.4 27.1 19.1 57 6.1 N 24 32 13 17 1008.8 1004.2 0.0
22/05:00am 28.8 28.3 19.1 55 6.4 N 20 26 11 14 1008.4 1003.8 0.0
22/04:30am 28.7 27.9 19.3 56 6.2 N 22 30 12 16 1008.0 1003.4 0.0
22/04:00am 28.8 28.5 19.1 55 6.4 N 19 26 10 14 1007.6 1003.0 0.0
22/03:30am 29.0 27.6 19.6 57 6.3 N 26 33 14 18 1007.5 1002.9 0.0
22/03:00am 29.6 29.6 19.0 53 7.0 N 17 24 9 13 1007.4 1002.8 0.0
22/02:30am 29.8 29.6 18.6 51 7.4 N 17 24 9 13 1007.3 1002.7 0.0
22/02:00am 30.0 29.7 19.1 52 7.2 NNW 19 24 10 13 1007.1 1002.5 0.0
22/01:30am 30.4 29.6 18.5 49 7.8 NNW 20 26 11 14 1007.2 1002.6 0.0
22/01:00am 30.7 30.1 18.4 47 8.1 N 19 24 10 13 1007.8 1003.1 0.0
22/12:30am 31.0 30.8 18.4 47 8.3 NNW 17 22 9 12 1007.8 1003.1 0.0
22/12:00am 31.3 30.8 19.0 48 8.2 NNW 20 28 11 15 1008.0 1003.4 0.0
 
Date/Time
WST
Temp
°C
App
Temp
°C
Dew
Point
°C
Rel
Hum
%
Delta-T
°C
Wind Press
QNH
hPa
Press
MSL
hPa
Rain since
9am
mm
Dir  Spd
km/h
Gust
km/h
Spd
kts
Gust
kts
21/11:30pm 31.5 30.7 19.2 48 8.2 NNW 22 28 12 15 1008.3 1003.7 0.0
21/11:00pm 32.1 31.1 17.9 42 9.3 NNW 20 24 11 13 1008.4 1003.8 0.0
21/10:30pm 32.6 30.4 16.8 38 10.2 NNW 24 32 13 17 1008.5 1003.9 0.0
21/10:00pm 33.1 30.0 16.5 37 10.7 N 28 37 15 20 1008.3 1003.7 0.0
21/09:30pm 33.4 29.6 16.7 36 10.8 N 32 43 17 23 1008.1 1003.5 0.0
21/09:00pm 34.0 29.3 15.9 33 11.6 N 35 46 19 25 1007.9 1003.3 0.0
21/08:37pm 35.2 29.8 15.0 30 12.8 NNE 37 56 20 30 1007.3 1002.7 0.0
21/08:30pm 35.7 30.4 12.6 25 14.2 NNE 32 44 17 24 1007.1 1002.5 0.0
21/08:00pm 36.3 31.7 11.2 22 15.2 NNE 26 32 14 17 1006.6 1002.0 0.0
21/07:30pm 36.8 31.6 10.2 20 15.9 NNE 28 35 15 19 1006.3 1001.7 0.0
21/07:00pm 38.0 34.3 7.8 16 17.5 N 17 20 9 11 1006.0 1001.3 0.0
21/06:30pm 38.6 34.8 7.4 15 18.0 NNE 17 26 9 14 1005.5 1000.9 0.0
21/06:00pm 39.0 34.4 6.7 14 18.5 N 20 28 11 15 1005.5 1000.9 0.0
21/05:30pm 39.7 35.2 6.1 13 19.1 NNE 19 26 10 14 1005.1 1000.5 0.0
21/05:00pm 39.3 34.7 5.8 13 19.0 NNE 19 32 10 17 1005.2 1000.6 0.0
21/04:30pm 39.6 34.7 4.9 12 19.4 NNE 20 30 11 16 1005.2 1000.6 0.0
21/04:00pm 40.2 36.4 4.1 11 20.1 NE 13 20 7 11 1005.3 1000.7 0.0
21/03:30pm 40.9 35.8 3.3 10 20.7 NNE 19 30 10 16 1005.5 1000.9 0.0
21/03:00pm 40.0 34.6 2.6 10 20.3 NNE 20 39 11 21 1006.1 1001.4 0.0
21/02:30pm 40.3 35.5 2.8 10 20.4 N 17 26 9 14 1006.5 1001.9 0.0
21/02:00pm 40.5 35.8 3.0 10 20.5 N 17 28 9 15 1006.8 1002.2 0.0
21/01:30pm 40.1 36.3 4.0 11 20.0 NE 13 26 7 14 1007.1 1002.5 0.0
21/01:00pm 40.1 36.1 2.7 10 20.3 NNW 13 28 7 15 1007.3 1002.7 0.0
21/12:30pm 39.8 35.4 2.5 10 20.1 ENE 15 28 8 15 1007.9 1003.3 0.0
21/12:00pm 39.1 34.4 3.3 11 19.5 NNE 17 30 9 16 1008.2 1003.6 0.0
21/11:30am 38.9 34.6 3.1 11 19.4 NE 15 28 8 15 1008.6 1004.0 0.0
21/11:00am 38.6 34.5 4.1 12 19.0 NNW 15 22 8 12 1009.1 1004.5 0.0
21/10:30am 38.0 35.7 5.9 14 18.1 ESE 7 20 4 11 1009.5 1004.9 0.0
21/10:00am 37.5 34.0 7.4 16 17.3 E 15 26 8 14 1009.9 1005.3 0.0
21/09:30am 36.6 33.6 9.2 19 16.1 SE 15 20 8 11 1010.0 1005.4 0.0
21/09:00am 35.4 32.9 11.1 23 14.6 SE 15 20 8 11 1010.1 1005.5 0.0
21/08:30am 34.8 31.4 11.2 24 14.2 SSE 20 32 11 17 1010.1 1005.5 0.0
21/08:00am 34.0 30.6 11.2 25 13.7 S 20 28 11 15 1010.0 1005.4 0.0
21/07:30am 32.0 31.0 12.3 30 11.9 S 9 15 5 8 1010.2 1005.6 0.0
21/07:00am 30.8 29.7 13.1 34 10.8 SSW 11 17 6 9 1010.1 1005.5 0.0
21/06:30am 29.2 28.6 13.4 38 9.6 SSW 9 11 5 6 1009.9 1005.3 0.0
21/06:00am 27.4 27.1 13.4 42 8.5 SW 7 9 4 5 1009.8 1005.2 0.0
21/05:30am 27.4 26.3 13.0 41 8.6 SSW 11 13 6 7 1009.3 1004.7 0.0
21/05:00am 27.4 26.1 12.6 40 8.8 SW 11 13 6 7 1009.3 1004.7 0.0
21/04:30am 28.0 26.7 12.4 38 9.3 WSW 11 17 6 9 1009.0 1004.4 0.0
21/04:00am 27.9 26.0 11.9 37 9.5 SW 13 15 7 8 1008.9 1004.3 0.0
21/03:30am 29.4 28.9 11.9 34 10.4 WNW 6 9 3 5 1009.2 1004.6 0.0
21/03:00am 30.2 28.3 11.7 32 11.0 WSW 13 19 7 10 1009.1 1004.5 0.0
21/02:30am 30.9 27.1 9.2 26 12.4 SW 19 24 10 13 1008.9 1004.3 0.0
21/02:00am 31.6 28.6 5.9 20 14.0 SW 11 19 6 10 1008.9 1004.3 0.0
21/01:30am 27.7 24.8 6.5 26 11.4 SSW 11 15 6 8 1008.5 1003.9 0.0
21/01:00am 27.4 26.8 7.3 28 11.0 CALM 0 0 0 0 1008.3 1003.7 0.0
21/12:30am 27.8 27.1 7.1 27 11.3 CALM 0 0 0 0 1008.7 1004.1 0.0
21/12:00am 27.9 27.3 7.2 27 11.3 CALM 0 0 0 0 1009.1 1004.5 0.0
 
Date/Time
WST
Temp
°C
App
Temp
°C
Dew
Point
°C
Rel
Hum
%
Delta-T
°C
Wind Press
QNH
hPa
Press
MSL
hPa
Rain since
9am
mm
Dir  Spd
km/h
Gust
km/h
Spd
kts
Gust
kts
20/11:30pm 28.8 28.1 6.8 25 12.0 CALM 0 0 0 0 1009.5 1004.9 0.0
20/11:00pm 29.3 27.2 6.7 24 12.4 ENE 7 7 4 4 1009.8 1005.2 0.0
20/10:30pm 30.8 29.6 6.6 22 13.3 ENE 2 7 1 4 1010.1 1005.5 0.0
20/10:00pm 32.7 30.6 6.8 20 14.4 NNE 7 9 4 5 1010.1 1005.5 0.0

Other formats

Comma delimited format used in spreadsheet applications
http://www.bom.gov.au/fwo/IDW60801/IDW60801.94317.axf

JavaScript Object Notation format (JSON) in row-major order
http://www.bom.gov.au/fwo/IDW60801/IDW60801.94317.json

Data quality

Most of these data are generated automatically and are frequently updated. Quality checks on data are not normally performed. It is possible for incorrect values to appear. Refer to information at About Latest Weather Observations and please check the disclaimer before using these data.